createdAt,value
2023-01-01T00:01:30.980Z,6.00
2023-01-01T00:04:02.688Z,4.78
2023-01-01T00:06:34.039Z,5.57
2023-01-01T00:09:24.439Z,5.10
2023-01-01T00:11:55.449Z,5.90
2023-01-01T00:14:26.839Z,5.05
2023-01-01T00:16:58.802Z,5.32
2023-01-01T00:19:30.422Z,4.25
2023-01-01T00:22:05.626Z,4.30
2023-01-01T00:24:51.912Z,4.75
2023-01-01T00:27:23.020Z,5.40
2023-01-01T00:29:54.143Z,4.07
2023-01-01T00:32:25.699Z,6.38
2023-01-01T00:34:56.751Z,5.95
2023-01-01T00:37:29.372Z,5.20
2023-01-01T00:40:00.615Z,5.93
2023-01-01T00:42:33.265Z,4.07
2023-01-01T00:45:04.319Z,4.55
2023-01-01T00:47:35.751Z,4.15
2023-01-01T00:50:07.356Z,4.13
2023-01-01T00:52:38.586Z,6.85
2023-01-01T00:57:40.622Z,4.90
2023-01-01T01:00:12.463Z,4.25
2023-01-01T01:02:43.750Z,6.32
2023-01-01T01:07:45.687Z,4.85
2023-01-01T01:12:47.636Z,5.63
2023-01-01T01:15:18.611Z,4.63
2023-01-01T01:17:49.791Z,5.93
2023-01-01T01:20:21.027Z,5.10
2023-01-01T01:25:22.954Z,5.50
2023-01-01T01:27:54.283Z,4.38
2023-01-01T01:30:25.829Z,4.82
2023-01-01T01:32:57.008Z,5.55
2023-01-01T01:35:28.235Z,5.13
2023-01-01T01:37:59.647Z,5.78
2023-01-01T01:40:30.778Z,5.30
2023-01-01T01:43:01.743Z,4.38
2023-01-01T01:45:33.571Z,4.57
2023-01-01T01:48:05.128Z,5.72
2023-01-01T01:53:10.781Z,5.82
2023-01-01T01:55:53.605Z,5.38
2023-01-01T01:58:25.091Z,3.28
2023-01-01T02:03:41.184Z,4.78
2023-01-01T02:06:13.167Z,5.72
2023-01-01T02:08:44.306Z,4.65
2023-01-01T02:11:21.646Z,4.38
2023-01-01T02:13:53.765Z,3.88
2023-01-01T02:16:46.106Z,6.40
2023-01-01T02:19:39.681Z,7.32
2023-01-01T02:22:52.695Z,5.00
2023-01-01T02:25:49.480Z,4.00
2023-01-01T02:28:40.191Z,5.28
2023-01-01T02:31:16.991Z,5.20
2023-01-01T02:33:53.755Z,5.18
2023-01-01T02:36:27.881Z,5.13
2023-01-01T02:39:00.799Z,4.65
2023-01-01T02:41:42.216Z,5.03
2023-01-01T02:44:14.597Z,4.68
2023-01-01T02:46:45.780Z,4.03
2023-01-01T02:49:16.684Z,5.35
2023-01-01T02:51:59.766Z,6.10
2023-01-01T02:54:40.526Z,4.72
2023-01-01T02:57:37.107Z,7.53
2023-01-01T03:00:21.127Z,5.45
2023-01-01T03:03:22.743Z,6.28
2023-01-01T03:06:24.375Z,6.68
2023-01-01T03:09:18.358Z,6.15
2023-01-01T03:12:21.012Z,7.40
2023-01-01T03:15:00.315Z,5.97
2023-01-01T03:17:37.759Z,6.53
2023-01-01T03:20:12.930Z,4.68
2023-01-01T03:25:31.781Z,5.10
2023-01-01T03:28:07.488Z,5.53
2023-01-01T03:30:40.608Z,5.38
2023-01-01T03:33:40.579Z,4.93
2023-01-01T03:36:26.329Z,7.65
2023-01-01T03:39:10.731Z,6.80
2023-01-01T03:41:49.147Z,5.18
2023-01-01T03:44:25.657Z,5.45
2023-01-01T03:46:56.922Z,4.50
2023-01-01T03:49:28.356Z,5.38
2023-01-01T03:52:25.245Z,4.55
2023-01-01T03:54:59.587Z,6.32
2023-01-01T03:57:52.017Z,5.47
2023-01-01T04:00:29.492Z,5.72
2023-01-01T04:03:17.330Z,5.10
2023-01-01T04:05:48.586Z,6.45
2023-01-01T04:08:20.106Z,6.30
2023-01-01T04:15:54.088Z,4.55
2023-01-01T04:18:25.016Z,4.78
2023-01-01T04:23:27.026Z,6.38
2023-01-01T04:25:58.353Z,5.88
2023-01-01T04:31:04.483Z,4.03
2023-01-01T04:33:35.975Z,6.65
2023-01-01T04:36:12.366Z,6.53
2023-01-01T04:38:43.282Z,6.50
2023-01-01T04:41:14.107Z,7.13
2023-01-01T04:43:52.492Z,7.22
2023-01-01T04:46:24.790Z,9.13
2023-01-01T04:48:56.378Z,6.38
2023-01-01T04:51:27.514Z,6.10
2023-01-01T04:53:58.767Z,7.90
2023-01-01T04:56:30.021Z,7.93
2023-01-01T05:01:32.535Z,7.28
2023-01-01T05:04:04.026Z,8.65
2023-01-01T05:06:35.228Z,6.95
2023-01-01T05:09:06.969Z,5.88
2023-01-01T05:14:08.773Z,6.43
2023-01-01T05:16:41.989Z,6.00
2023-01-01T05:19:13.157Z,6.72
2023-01-01T05:21:47.196Z,6.30
2023-01-01T05:24:18.295Z,5.50
2023-01-01T05:26:49.467Z,5.93
2023-01-01T05:29:21.242Z,8.23
2023-01-01T05:31:52.592Z,7.00
2023-01-01T05:34:24.020Z,5.18
2023-01-01T05:36:55.182Z,7.30
2023-01-01T05:39:26.631Z,7.75
2023-01-01T05:41:57.863Z,8.70
2023-01-01T05:44:28.948Z,6.10
2023-01-01T05:47:00.085Z,6.35
2023-01-01T05:49:31.486Z,6.82
2023-01-01T05:52:02.398Z,8.00
2023-01-01T05:54:33.302Z,5.78
2023-01-01T05:57:04.206Z,9.07
2023-01-01T05:59:35.379Z,6.90
2023-01-01T06:02:06.468Z,5.47
2023-01-01T06:04:37.770Z,7.20
2023-01-01T06:07:08.915Z,7.05
2023-01-01T06:09:39.983Z,7.47
2023-01-01T06:12:11.318Z,7.60
2023-01-01T06:14:42.640Z,7.60
2023-01-01T06:17:14.548Z,8.13
2023-01-01T06:19:45.912Z,9.38
2023-01-01T06:22:17.732Z,5.60
2023-01-01T06:24:48.868Z,10.05
2023-01-01T06:27:20.095Z,7.45
2023-01-01T06:29:51.183Z,8.68
2023-01-01T06:32:22.312Z,5.43
2023-01-01T06:34:53.251Z,6.05
2023-01-01T06:37:24.682Z,7.22
2023-01-01T06:39:55.947Z,6.88
2023-01-01T06:42:31.994Z,6.95
2023-01-01T06:45:05.182Z,6.90
2023-01-01T06:47:37.205Z,5.93
2023-01-01T06:50:10.389Z,5.97
2023-01-01T06:52:41.380Z,6.57
2023-01-01T06:55:12.796Z,6.63
2023-01-01T06:57:43.689Z,6.22
2023-01-01T07:00:15.815Z,7.72
2023-01-01T07:02:49.896Z,6.95
2023-01-01T07:05:21.139Z,5.55
2023-01-01T07:07:52.237Z,5.78
2023-01-01T07:10:23.589Z,7.03
2023-01-01T07:12:55.076Z,5.05
2023-01-01T07:15:26.163Z,3.70
2023-01-01T07:17:57.154Z,6.45
2023-01-01T07:20:28.129Z,8.13
2023-01-01T07:23:00.139Z,6.13
2023-01-01T07:25:31.537Z,5.35
2023-01-01T07:28:02.555Z,6.93
2023-01-01T07:30:33.537Z,5.38
2023-01-01T07:33:04.604Z,6.28
2023-01-01T07:35:39.380Z,8.75
2023-01-01T07:40:41.924Z,7.85
2023-01-01T07:43:14.091Z,5.97
2023-01-01T07:45:45.390Z,8.25
2023-01-01T07:48:17.917Z,9.82
2023-01-01T07:50:49.179Z,6.78
2023-01-01T07:53:20.429Z,5.35
2023-01-01T07:55:51.596Z,5.72
2023-01-01T07:58:24.449Z,6.38
2023-01-01T08:00:55.783Z,7.10
2023-01-01T08:03:26.792Z,7.88
2023-01-01T08:05:57.852Z,7.20
2023-01-01T08:08:29.035Z,8.00
2023-01-01T08:11:04.488Z,6.15
2023-01-01T08:13:35.645Z,6.97
2023-01-01T08:16:09.247Z,6.35
2023-01-01T08:18:40.412Z,6.80
2023-01-01T08:23:43.247Z,7.17
2023-01-01T08:26:18.879Z,8.23
2023-01-01T08:28:53.584Z,6.57
2023-01-01T08:31:28.709Z,6.88
2023-01-01T08:33:59.849Z,5.30
2023-01-01T08:36:31.393Z,6.07
2023-01-01T08:39:02.607Z,5.97
2023-01-01T08:41:34.048Z,5.13
2023-01-01T08:44:05.173Z,6.55
2023-01-01T08:46:36.637Z,5.18
2023-01-01T08:49:08.128Z,5.82
2023-01-01T08:51:39.275Z,7.40
2023-01-01T08:54:10.546Z,6.35
2023-01-01T08:56:41.583Z,6.88
2023-01-01T08:59:12.660Z,9.60
2023-01-01T09:01:44.013Z,7.53
2023-01-01T09:06:47.041Z,6.68
2023-01-01T09:09:19.650Z,6.67
2023-01-01T09:11:55.410Z,6.70
2023-01-01T09:14:27.363Z,5.57
2023-01-01T09:16:58.470Z,6.40
2023-01-01T09:19:30.777Z,5.40
2023-01-01T09:22:02.161Z,4.95
2023-01-01T09:27:04.011Z,6.63
2023-01-01T09:29:35.334Z,7.20
2023-01-01T09:32:06.529Z,6.65
2023-01-01T09:34:37.672Z,6.15
2023-01-01T09:37:09.030Z,4.57
2023-01-01T09:42:32.251Z,10.45
2023-01-01T09:45:30.953Z,10.65
2023-01-01T09:48:08.240Z,6.78
2023-01-01T09:50:42.880Z,7.25
2023-01-01T09:53:25.953Z,7.55
2023-01-01T09:56:05.053Z,6.57
2023-01-01T09:58:40.318Z,7.13
2023-01-01T10:01:33.029Z,5.78
2023-01-01T10:04:22.363Z,6.72
2023-01-01T10:07:05.806Z,8.20
2023-01-01T10:09:45.655Z,7.50
2023-01-01T10:12:22.828Z,4.85
2023-01-01T10:15:04.497Z,7.47
2023-01-01T10:17:51.076Z,6.30
2023-01-01T10:20:43.540Z,5.90
2023-01-01T10:23:19.527Z,7.13
2023-01-01T10:25:51.046Z,5.22
2023-01-01T10:28:30.612Z,9.48
2023-01-01T10:31:20.941Z,7.15
2023-01-01T10:33:51.952Z,7.15
2023-01-01T10:36:23.100Z,6.78
2023-01-01T10:38:54.241Z,7.55
2023-01-01T10:41:25.117Z,8.60
2023-01-01T10:43:56.311Z,5.85
2023-01-01T10:46:31.817Z,7.97
2023-01-01T10:49:21.001Z,6.45
2023-01-01T10:51:54.421Z,9.35
2023-01-01T10:54:31.689Z,6.13
2023-01-01T10:57:24.287Z,8.30
2023-01-01T10:59:55.854Z,9.13
2023-01-01T11:05:22.796Z,6.82
2023-01-01T11:07:54.111Z,6.85
2023-01-01T11:10:32.654Z,7.40
2023-01-01T11:13:05.584Z,7.72
2023-01-01T11:15:44.395Z,6.68
2023-01-01T11:18:17.648Z,6.00
2023-01-01T11:21:00.182Z,6.00
2023-01-01T11:23:35.953Z,5.03
2023-01-01T11:26:21.383Z,4.30
2023-01-01T11:29:26.870Z,3.65
2023-01-01T11:31:58.893Z,5.55
2023-01-01T11:34:34.643Z,5.10
2023-01-01T11:37:12.153Z,5.05
2023-01-01T11:39:51.881Z,5.03
2023-01-01T11:42:28.346Z,3.17
2023-01-01T11:45:20.881Z,3.25
2023-01-01T11:48:00.538Z,5.88
2023-01-01T11:50:33.321Z,3.13
2023-01-01T11:53:22.575Z,4.80
2023-01-01T11:56:05.865Z,3.03
2023-01-01T11:58:59.015Z,3.92
2023-01-01T12:01:39.152Z,3.20
2023-01-01T12:04:32.153Z,3.33
2023-01-01T12:07:14.304Z,4.32
2023-01-01T12:09:49.136Z,2.60
2023-01-01T12:13:01.257Z,2.22
2023-01-01T12:15:45.981Z,2.03
2023-01-01T12:18:59.514Z,5.07
2023-01-01T12:21:32.588Z,2.13
2023-01-01T12:24:05.801Z,2.90
2023-01-01T12:26:55.905Z,2.60
2023-01-01T12:29:43.341Z,2.08
2023-01-01T12:32:35.501Z,4.45
2023-01-01T12:38:24.141Z,2.47
2023-01-01T12:40:55.135Z,4.65
2023-01-01T12:43:37.392Z,2.90
2023-01-01T12:46:36.094Z,2.88
2023-01-01T12:49:36.199Z,5.07
2023-01-01T12:52:07.166Z,3.78
2023-01-01T12:55:02.298Z,2.00
2023-01-01T12:57:50.940Z,2.83
2023-01-01T13:00:22.943Z,3.10
2023-01-01T13:03:32.806Z,3.90
2023-01-01T13:06:04.622Z,3.72
2023-01-01T13:08:36.081Z,1.55
2023-01-01T13:11:08.734Z,2.75
2023-01-01T13:13:39.787Z,2.60
2023-01-01T13:16:15.219Z,2.78
2023-01-01T13:18:52.746Z,1.80
2023-01-01T13:21:27.363Z,1.75
2023-01-01T13:24:05.504Z,3.17
2023-01-01T13:26:37.338Z,1.13
2023-01-01T13:29:27.359Z,2.60
2023-01-01T13:32:03.447Z,3.03
2023-01-01T13:34:44.363Z,1.65
2023-01-01T13:37:15.725Z,2.70
2023-01-01T13:40:15.313Z,2.72
2023-01-01T13:43:04.526Z,1.98
2023-01-01T13:46:11.434Z,3.05
2023-01-01T13:48:41.266Z,2.15
2023-01-01T13:52:04.048Z,1.98
2023-01-01T13:54:33.598Z,1.73
2023-01-01T13:57:13.996Z,4.22
2023-01-01T14:00:06.372Z,2.65
2023-01-01T14:03:10.773Z,2.60
2023-01-01T14:06:12.565Z,4.18
2023-01-01T14:08:43.737Z,2.15
2023-01-01T14:11:23.454Z,3.42
2023-01-01T14:13:54.453Z,2.50
2023-01-01T14:16:27.254Z,2.50
2023-01-01T14:19:04.725Z,4.10
2023-01-01T14:21:36.698Z,3.30
2023-01-01T14:26:40.557Z,4.15
2023-01-01T14:29:17.767Z,2.08
2023-01-01T14:31:50.119Z,2.78
2023-01-01T14:34:36.539Z,2.90
2023-01-01T14:37:21.304Z,1.10
2023-01-01T14:40:14.200Z,1.77
2023-01-01T14:42:46.257Z,2.53
2023-01-01T14:45:21.349Z,1.40
2023-01-01T14:47:53.784Z,2.60
2023-01-01T14:50:29.725Z,1.38
2023-01-01T14:53:14.702Z,2.40
2023-01-01T14:55:47.985Z,1.50
2023-01-01T14:58:29.467Z,1.83
2023-01-01T15:01:26.993Z,2.15
2023-01-01T15:04:00.361Z,1.70
2023-01-01T15:06:32.125Z,1.95
2023-01-01T15:09:05.133Z,1.88
2023-01-01T15:11:36.124Z,1.83
2023-01-01T15:14:07.478Z,2.08
2023-01-01T15:16:40.787Z,1.75
2023-01-01T15:19:20.025Z,2.13
2023-01-01T15:21:51.207Z,1.33
2023-01-01T15:24:28.833Z,2.15
2023-01-01T15:27:02.100Z,1.42
2023-01-01T15:29:42.388Z,1.17
2023-01-01T15:32:16.587Z,1.63
2023-01-01T15:34:53.116Z,1.40
2023-01-01T15:37:38.045Z,1.88
2023-01-01T15:40:18.326Z,1.95
2023-01-01T15:43:13.943Z,1.92
2023-01-01T15:45:54.633Z,2.10
2023-01-01T15:48:42.390Z,1.10
2023-01-01T15:51:31.811Z,2.00
2023-01-01T15:54:06.513Z,1.75
2023-01-01T15:56:42.251Z,1.35
2023-01-01T15:59:30.199Z,2.28
2023-01-01T16:02:12.574Z,2.40
2023-01-01T16:04:48.733Z,1.27
2023-01-01T16:07:25.061Z,1.40
2023-01-01T16:09:58.029Z,1.23
2023-01-01T16:12:31.284Z,3.40
2023-01-01T16:15:02.203Z,1.45
2023-01-01T16:17:33.356Z,2.10
2023-01-01T16:20:04.811Z,1.73
2023-01-01T16:22:36.870Z,1.80
2023-01-01T16:25:22.773Z,1.15
2023-01-01T16:27:54.166Z,1.90
2023-01-01T16:30:28.370Z,2.55
2023-01-01T16:32:59.503Z,1.48
2023-01-01T16:35:30.485Z,2.17
2023-01-01T16:38:01.829Z,2.85
2023-01-01T16:40:37.674Z,2.05
2023-01-01T16:43:19.917Z,1.35
2023-01-01T16:45:51.179Z,1.38
2023-01-01T16:48:22.604Z,1.55
2023-01-01T16:50:53.985Z,1.45
2023-01-01T16:53:25.211Z,1.42
2023-01-01T16:55:56.468Z,1.93
2023-01-01T17:01:19.437Z,2.38
2023-01-01T17:03:50.873Z,1.77
2023-01-01T17:06:22.633Z,2.53
2023-01-01T17:11:26.356Z,1.70
2023-01-01T17:13:58.025Z,1.73
2023-01-01T17:16:38.665Z,1.08
2023-01-01T17:19:15.474Z,2.67
2023-01-01T17:21:48.472Z,0.90
2023-01-01T17:24:21.570Z,2.55
2023-01-01T17:26:56.823Z,2.33
2023-01-01T17:29:28.172Z,2.25
2023-01-01T17:31:59.589Z,3.45
2023-01-01T17:34:30.782Z,2.00
2023-01-01T17:37:01.851Z,1.42
2023-01-01T17:39:32.930Z,2.00
2023-01-01T17:42:03.947Z,3.30
2023-01-01T17:44:34.995Z,1.35
2023-01-01T17:47:05.999Z,2.05
2023-01-01T17:49:37.112Z,2.63
2023-01-01T17:52:08.193Z,1.65
2023-01-01T17:54:39.282Z,2.95
2023-01-01T17:57:10.301Z,0.90
2023-01-01T17:59:41.186Z,3.13
2023-01-01T18:02:16.102Z,2.50
2023-01-01T18:04:47.258Z,2.28
2023-01-01T18:07:18.713Z,1.33
2023-01-01T18:09:49.645Z,1.80
2023-01-01T18:12:20.609Z,1.63
2023-01-01T18:14:51.800Z,1.60
2023-01-01T18:17:22.996Z,1.02
2023-01-01T18:19:55.274Z,1.95
2023-01-01T18:22:26.438Z,2.03
2023-01-01T18:24:57.785Z,1.42
2023-01-01T18:27:28.913Z,1.25
2023-01-01T18:30:00.330Z,2.88
2023-01-01T18:32:34.156Z,2.38
2023-01-01T18:35:05.151Z,1.38
2023-01-01T18:37:38.234Z,1.58
2023-01-01T18:40:19.485Z,3.10
2023-01-01T18:43:04.130Z,1.38
2023-01-01T18:45:37.014Z,2.20
2023-01-01T18:48:15.017Z,2.80
2023-01-01T18:50:46.145Z,1.30
2023-01-01T18:53:24.637Z,0.90
2023-01-01T18:56:26.117Z,1.85
2023-01-01T18:58:58.935Z,2.47
2023-01-01T19:01:30.405Z,3.28
2023-01-01T19:04:05.938Z,2.42
2023-01-01T19:06:37.535Z,4.15
2023-01-01T19:09:24.700Z,2.03
2023-01-01T19:11:56.737Z,2.08
2023-01-01T19:14:30.197Z,5.05
2023-01-01T19:17:02.811Z,2.40
2023-01-01T19:19:37.095Z,2.28
2023-01-01T19:22:23.351Z,2.53
2023-01-01T19:24:54.240Z,2.95
2023-01-01T19:27:26.922Z,2.75
2023-01-01T19:29:58.301Z,2.22
2023-01-01T19:32:29.356Z,3.22
2023-01-01T19:35:01.437Z,2.40
2023-01-01T19:37:32.759Z,2.20
2023-01-01T19:40:03.730Z,1.50
2023-01-01T19:42:34.885Z,2.58
2023-01-01T19:45:07.168Z,3.28
2023-01-01T19:47:39.762Z,1.23
2023-01-01T19:50:11.508Z,3.35
2023-01-01T19:52:42.782Z,1.50
2023-01-01T19:55:13.844Z,1.90
2023-01-01T19:57:45.777Z,3.28
2023-01-01T20:00:17.306Z,2.47
2023-01-01T20:05:19.800Z,1.80
2023-01-01T20:07:50.848Z,2.63
2023-01-01T20:10:22.335Z,1.88
2023-01-01T20:12:53.368Z,2.58
2023-01-01T20:15:24.948Z,1.73
2023-01-01T20:17:56.346Z,2.45
2023-01-01T20:20:27.511Z,1.55
2023-01-01T20:22:59.117Z,1.38
2023-01-01T20:25:30.222Z,2.47
2023-01-01T20:28:19.563Z,2.08
2023-01-01T20:30:50.618Z,2.40
2023-01-01T20:33:21.591Z,4.10
2023-01-01T20:38:42.164Z,1.35
2023-01-01T20:41:26.081Z,2.30
2023-01-01T20:44:01.197Z,2.05
2023-01-01T20:46:32.311Z,2.28
2023-01-01T20:49:03.283Z,4.03
2023-01-01T20:51:34.399Z,2.05
2023-01-01T20:54:06.009Z,2.40
2023-01-01T20:56:37.139Z,2.83
2023-01-01T20:59:33.563Z,3.45
2023-01-01T21:07:02.739Z,2.00
2023-01-01T21:09:33.765Z,1.27
2023-01-01T21:12:05.455Z,2.90
2023-01-01T21:14:36.671Z,2.13
2023-01-01T21:17:28.521Z,3.50
2023-01-01T21:22:30.341Z,2.40
2023-01-01T21:25:40.585Z,1.33
2023-01-01T21:27:54.692Z,2.85
2023-01-01T21:32:56.100Z,2.63
2023-01-01T21:35:36.960Z,4.80
2023-01-01T21:38:28.867Z,1.67
2023-01-01T21:41:00.954Z,2.63
2023-01-01T21:43:36.886Z,3.03
2023-01-01T21:46:08.047Z,3.10
2023-01-01T21:48:47.817Z,2.05
2023-01-01T21:51:28.734Z,2.33
2023-01-01T21:54:05.414Z,1.75
2023-01-01T21:56:39.501Z,2.63
2023-01-01T21:59:30.010Z,3.08
2023-01-01T22:02:07.705Z,2.22
2023-01-01T22:04:40.521Z,3.10
2023-01-01T22:07:57.405Z,3.42
2023-01-01T22:10:39.724Z,3.85
2023-01-01T22:13:17.220Z,3.95
2023-01-01T22:15:49.016Z,2.65
2023-01-01T22:18:28.668Z,2.67
2023-01-01T22:20:59.821Z,2.55
2023-01-01T22:23:43.541Z,3.50
2023-01-01T22:26:22.042Z,2.47
2023-01-01T22:28:57.405Z,3.97
2023-01-01T22:31:32.146Z,3.85
2023-01-01T22:34:06.509Z,2.72
2023-01-01T22:36:39.200Z,2.35
2023-01-01T22:39:31.936Z,2.28
2023-01-01T22:42:03.392Z,4.25
2023-01-01T22:44:37.224Z,3.28
2023-01-01T22:47:15.055Z,3.38
2023-01-01T22:49:48.441Z,1.77
2023-01-01T22:52:20.069Z,3.65
2023-01-01T22:54:51.140Z,3.40
2023-01-01T22:57:22.287Z,2.97
2023-01-01T22:59:53.384Z,2.53
2023-01-01T23:02:24.507Z,4.80
2023-01-01T23:04:55.773Z,2.03
2023-01-01T23:07:27.448Z,5.35
2023-01-01T23:09:59.781Z,2.63
2023-01-01T23:12:31.545Z,2.47
2023-01-01T23:15:20.643Z,2.75
2023-01-01T23:17:51.516Z,2.53
2023-01-01T23:20:22.820Z,7.53
2023-01-01T23:22:56.154Z,2.80
2023-01-01T23:25:27.499Z,11.32
2023-01-01T23:27:58.644Z,4.50
2023-01-01T23:33:00.401Z,13.90
2023-01-01T23:35:31.658Z,2.53
2023-01-01T23:38:03.691Z,2.17
2023-01-01T23:40:35.743Z,3.88
2023-01-01T23:43:07.111Z,4.55
2023-01-01T23:48:10.359Z,4.07
2023-01-01T23:50:41.815Z,4.18
2023-01-01T23:53:13.094Z,4.35
2023-01-01T23:55:44.431Z,1.60
2023-01-01T23:58:15.404Z,2.58
